Flight Track Log - Related Links

Times and Time Zones

All times are in EST time to prevent confusion due to time zone crossing. See the N479B flight status page for this flight to view local times or setup timezone preferences in your user account.

Time Position Orientation Groundspeed Altitude Reporting Facility
EST Latitude Longitude Course Direction KTS MPH feet Rate Location/Type
Thu 10:29:07 AM 32.3767 -90.2219 280° West 193 222 6,900  Level Memphis Center
Thu 10:30:08 AM 32.3761 -90.2822 269° West 190 219 8,900 1,805 Climbing Memphis Center
Thu 10:31:10 AM 32.3747 -90.3436 268° West 187 215 10,600 1,805 Climbing Memphis Center
Thu 10:32:11 AM 32.3722 -90.4075 267° West 192 221 12,600 2,049 Climbing Memphis Center
Thu 10:33:13 AM 32.3697 -90.4839 268° West 194 223 14,800 1,935 Climbing Memphis Center
Thu 10:34:15 AM 32.3683 -90.5472 269° West 194 223 16,600 1,610 Climbing Memphis Center
Thu 10:35:16 AM 32.3656 -90.6103 267° West 194 223 18,100 1,415 Climbing Memphis Center
Thu 10:36:18 AM 32.3631 -90.6708 267° West 188 216 19,500 1,220 Climbing Memphis Center
Thu 10:37:19 AM 32.3611 -90.7322 268° West 188 216 20,600 1,073 Climbing Memphis Center
Thu 10:38:21 AM 32.3592 -90.7956 268° West 192 221 21,700 1,065 Climbing Memphis Center
Thu 10:39:23 AM 32.3564 -90.8583 267° West 192 221 22,800 1,171 Climbing Memphis Center
Thu 10:40:24 AM 32.3542 -90.9322 268° West 190 219 24,100 1,122 Climbing Memphis Center
Thu 10:41:26 AM 32.3517 -90.9911 267° West 184 212 25,100 927 Climbing Memphis Center
Thu 10:42:27 AM 32.3489 -91.0494 267° West 180 207 26,000 439 Climbing Memphis Center
Thu 10:43:29 AM 32.3464 -91.1097 267° West 183 211 26,000  Level Memphis Center
Thu 10:44:43 AM 32.3439 -91.1922 268° West 206 237 26,000  Level Memphis Center
Thu 10:45:44 AM 32.3403 -91.2631 267° West 215 247 26,000  Level Memphis Center
Thu 10:46:46 AM 32.3378 -91.3344 268° West 217 250 26,000  Level Memphis Center
Thu 10:47:47 AM 32.3344 -91.4053 267° West 218 251 26,000 -146 Level Memphis Center
Thu 10:48:49 AM 32.3314 -91.4917 268° West 219 252 25,700 -390 Descending Memphis Center
Thu 10:49:50 AM 32.3269 -91.5672 266° West 228 262 25,200 -493 Descending Memphis Center
Thu 10:50:02 AM 32.3272 -91.5825 271° West 229 264 25,100 -649 Descending Memphis Center
Thu 10:51:04 AM 32.3239 -91.6600 267° West 235 270 24,400 -537 Descending Memphis Center
Thu 10:52:05 AM 32.3189 -91.7406 266° West 243 280 24,000 -293 Descending Memphis Center
Thu 10:53:07 AM 32.3169 -91.8161 268° West 235 270 23,800 -537 Descending Memphis Center
Thu 10:54:08 AM 32.3131 -91.8956 267° West 240 276 22,900 -903 Descending Memphis Center
Thu 10:54:40 AM 32.3128 -91.9394 270° West 253 291 22,400 -957 Descending Fort Worth Center
Thu 10:55:42 AM 32.3078 -92.0436 267° West 266 306 21,400 -919 Descending Fort Worth Center
Thu 10:56:44 AM 32.3039 -92.1336 267° West 274 315 20,500 -677 Descending Fort Worth Center
Thu 10:57:46 AM 32.2986 -92.2231 266° West 274 315 20,000 -242 Descending Fort Worth Center
Thu 10:58:48 AM 32.2953 -92.3064 267° West 259 298 20,000  Level Fort Worth Center
Thu 10:59:50 AM 32.2908 -92.3889 266° West 252 290 20,000  Level Fort Worth Center
Thu 11:00:52 AM 32.2864 -92.4875 267° West 252 290 20,000  Level Fort Worth Center
Thu 11:01:55 AM 32.2822 -92.5683 267° West 249 287 20,000  Level Fort Worth Center
Thu 11:02:57 AM 32.2781 -92.6503 267° West 251 289 20,000  Level Fort Worth Center
Thu 11:03:59 AM 32.2736 -92.7317 266° West 251 289 20,000  Level Fort Worth Center
Thu 11:05:01 AM 32.2703 -92.8131 267° West 249 287 20,000  Level Fort Worth Center
Thu 11:06:03 AM 32.2650 -92.8964 266° West 252 290 20,000  Level Fort Worth Center
Thu 11:07:05 AM 32.2594 -92.9956 266° West 254 292 20,000 242 Level Fort Worth Center
Thu 11:08:07 AM 32.2550 -93.0783 266° West 253 291 20,500 581 Climbing Fort Worth Center
Thu 11:09:09 AM 32.2494 -93.1617 266° West 242 278 21,200 629 Climbing Fort Worth Center
Thu 11:10:11 AM 32.2458 -93.2358 267° West 230 265 21,800 387 Climbing Fort Worth Center
Thu 11:11:13 AM 32.2419 -93.3106 266° West 228 262 22,000 97 Climbing Fort Worth Center
Thu 11:12:15 AM 32.2375 -93.3869 266° West 233 268 22,000  Level Fort Worth Center
Thu 11:13:17 AM 32.2317 -93.4700 265° West 250 288 22,000  Level Fort Worth Center
Thu 11:14:20 AM 32.2272 -93.5467 266° West 237 273 22,000  Level Fort Worth Center
Thu 11:15:22 AM 32.2225 -93.6414 267° West 240 276 22,000  Level Fort Worth Center
Thu 11:16:24 AM 32.2175 -93.7189 266° West 238 274 22,000  Level Fort Worth Center
Thu 11:17:26 AM 32.2133 -93.7947 266° West 234 269 22,000  Level Fort Worth Center
Thu 11:18:28 AM 32.2086 -93.8739 266° West 240 276 22,000  Level Fort Worth Center
Thu 11:19:30 AM 32.2033 -93.9522 265° West 240 276 22,000  Level Fort Worth Center
Thu 11:20:32 AM 32.1992 -94.0306 266° West 240 276 22,000  Level Fort Worth Center
Thu 11:21:34 AM 32.1933 -94.1086 265° West 239 275 22,000  Level Fort Worth Center
Thu 11:22:36 AM 32.1875 -94.2006 266° West 236 272 22,000  Level Fort Worth Center
Thu 11:23:38 AM 32.1842 -94.2711 267° West 237 273 22,000  Level Fort Worth Center
Thu 11:24:40 AM 32.1775 -94.3647 265° West 239 275 22,000  Level Fort Worth Center
Thu 11:25:42 AM 32.1731 -94.4403 266° West 234 269 22,000  Level Fort Worth Center
Thu 11:26:44 AM 32.1678 -94.5178 265° West 236 272 22,000  Level Fort Worth Center
Thu 11:27:46 AM 32.1622 -94.5944 265° West 236 272 22,000  Level Fort Worth Center
Thu 11:28:49 AM 32.1578 -94.6700 266° West 233 268 22,000  Level Fort Worth Center
Thu 11:29:51 AM 32.1522 -94.7475 265° West 237 273 22,000  Level Fort Worth Center
Thu 11:30:53 AM 32.1461 -94.8394 266° West 237 273 22,000  Level Fort Worth Center
Thu 11:31:55 AM 32.1400 -94.9169 265° West 237 273 22,000  Level Fort Worth Center
Thu 11:32:57 AM 32.1358 -94.9956 266° West 240 276 22,000  Level Fort Worth Center
Thu 11:33:59 AM 32.1289 -95.0733 264° West 239 275 22,000  Level Fort Worth Center
Thu 11:35:01 AM 32.1236 -95.1519 265° West 240 276 22,000 -677 Level Fort Worth Center
Thu 11:36:03 AM 32.1172 -95.2525 266° West 255 293 20,600 -1,296 Descending Fort Worth Center
Thu 11:37:06 AM 32.1094 -95.3439 264° West 276 318 19,300 -1,296 Descending Fort Worth Center
Thu 11:38:08 AM 32.1025 -95.4364 265° West 283 326 17,900 -1,355 Descending Fort Worth Center
Thu 11:39:10 AM 32.0961 -95.5322 266° West 291 335 16,500 -1,403 Descending Fort Worth Center
Thu 11:40:12 AM 32.0883 -95.6286 265° West 296 341 15,000 -1,500 Descending Fort Worth Center
Thu 11:41:14 AM 32.0817 -95.7208 265° West 287 330 13,400 -1,694 Descending Fort Worth Center
Thu 11:42:16 AM 32.0728 -95.8292 264° West 278 320 11,500 -1,694 Descending Fort Worth Center
Thu 11:43:18 AM 32.0653 -95.9186 264° West 276 318 9,900 -1,548 Descending Fort Worth Center

Login

Don't have an account? Register now (free) for customized features, flight alerts, and more!